createdAt,value
2022-12-15T00:00:34.013Z,38.67
2022-12-15T00:03:25.484Z,48.27
2022-12-15T00:06:11.630Z,46.83
2022-12-15T00:08:57.679Z,50.83
2022-12-15T00:11:43.403Z,46.37
2022-12-15T00:14:29.519Z,45.20
2022-12-15T00:17:15.174Z,47.37
2022-12-15T00:20:02.552Z,46.17
2022-12-15T00:22:48.195Z,46.40
2022-12-15T00:25:34.244Z,45.13
2022-12-15T00:28:20.225Z,49.23
2022-12-15T00:31:06.031Z,45.00
2022-12-15T00:33:51.646Z,43.07
2022-12-15T00:36:38.694Z,46.10
2022-12-15T00:39:06.982Z,44.57
2022-12-15T00:41:35.640Z,42.60
2022-12-15T00:44:04.231Z,43.57
2022-12-15T00:46:49.927Z,49.87
2022-12-15T00:49:32.243Z,45.60
2022-12-15T00:52:19.335Z,51.63
2022-12-15T00:55:05.178Z,44.80
2022-12-15T00:57:52.068Z,47.70
2022-12-15T01:00:38.650Z,48.53
2022-12-15T01:03:30.727Z,54.27
2022-12-15T01:06:17.571Z,46.07
2022-12-15T01:09:04.599Z,50.13
2022-12-15T01:11:50.712Z,45.37
2022-12-15T01:14:36.423Z,46.03
2022-12-15T01:17:22.120Z,45.83
2022-12-15T01:20:07.947Z,42.57
2022-12-15T01:22:38.181Z,45.03
2022-12-15T01:25:09.839Z,44.30
2022-12-15T01:27:38.332Z,45.60
2022-12-15T01:30:08.967Z,48.80
2022-12-15T01:32:41.412Z,43.13
2022-12-15T01:35:14.746Z,43.87
2022-12-15T01:37:43.445Z,44.00
2022-12-15T01:40:33.001Z,43.73
2022-12-15T01:43:01.564Z,49.90
2022-12-15T01:45:50.786Z,49.40
2022-12-15T01:48:31.735Z,47.17
2022-12-15T01:51:12.524Z,50.73
2022-12-15T01:53:45.294Z,46.83
2022-12-15T01:56:20.816Z,50.20
2022-12-15T01:58:50.921Z,45.67
2022-12-15T02:01:19.523Z,46.83
2022-12-15T02:03:49.238Z,45.77
2022-12-15T02:06:21.507Z,42.17
2022-12-15T02:08:51.933Z,39.83
2022-12-15T02:11:50.326Z,40.83
2022-12-15T02:14:25.850Z,42.43
2022-12-15T02:17:07.725Z,44.63
2022-12-15T02:20:23.628Z,41.70
2022-12-15T02:23:12.817Z,47.47
2022-12-15T02:25:54.564Z,51.97
2022-12-15T02:28:33.347Z,44.17
2022-12-15T02:31:23.907Z,45.77
2022-12-15T02:33:56.183Z,43.70
2022-12-15T02:36:29.669Z,40.93
2022-12-15T02:38:58.202Z,45.97
2022-12-15T02:41:36.979Z,41.57
2022-12-15T02:44:09.524Z,42.50
2022-12-15T02:46:52.529Z,41.40
2022-12-15T02:49:27.516Z,36.63
2022-12-15T02:52:07.428Z,41.80
2022-12-15T02:54:48.675Z,44.87
2022-12-15T02:57:21.253Z,40.43
2022-12-15T02:59:56.977Z,40.43
2022-12-15T03:02:30.124Z,48.00
2022-12-15T03:04:59.796Z,42.67
2022-12-15T03:07:28.958Z,52.17
2022-12-15T03:09:58.120Z,46.40
2022-12-15T03:12:27.598Z,44.40
2022-12-15T03:14:56.177Z,44.97
2022-12-15T03:17:24.642Z,41.50
2022-12-15T03:19:54.490Z,45.70
2022-12-15T03:22:22.863Z,45.53
2022-12-15T03:24:51.512Z,41.70
2022-12-15T03:27:20.059Z,42.43
2022-12-15T03:29:48.719Z,51.67
2022-12-15T03:32:17.283Z,51.77
2022-12-15T03:34:46.184Z,40.73
2022-12-15T03:37:15.950Z,43.33
2022-12-15T03:39:44.348Z,44.57
2022-12-15T03:42:12.835Z,42.17
2022-12-15T03:44:41.315Z,41.13
2022-12-15T03:47:09.733Z,45.10
2022-12-15T03:49:38.098Z,43.73
2022-12-15T03:52:06.883Z,41.87
2022-12-15T03:54:36.698Z,41.70
2022-12-15T03:57:06.160Z,44.20
2022-12-15T03:59:34.560Z,42.73
2022-12-15T04:02:03.153Z,41.43
2022-12-15T04:04:32.172Z,39.67
2022-12-15T04:07:00.524Z,44.63
2022-12-15T04:09:29.041Z,38.50
2022-12-15T04:11:58.785Z,39.27
2022-12-15T04:14:27.306Z,35.53
2022-12-15T04:16:55.730Z,39.13
2022-12-15T04:19:41.764Z,39.30
2022-12-15T04:22:14.925Z,36.63
2022-12-15T04:25:03.332Z,37.00
2022-12-15T04:27:50.577Z,36.80
2022-12-15T04:30:36.750Z,37.37
2022-12-15T04:33:26.410Z,37.10
2022-12-15T04:36:16.538Z,37.77
2022-12-15T04:39:05.553Z,34.50
2022-12-15T04:41:51.424Z,40.37
2022-12-15T04:44:38.681Z,37.93
2022-12-15T04:47:24.387Z,37.03
2022-12-15T04:50:10.340Z,39.20
2022-12-15T04:52:56.264Z,34.00
2022-12-15T04:55:42.130Z,35.13
2022-12-15T04:58:28.901Z,33.50
2022-12-15T05:01:17.545Z,34.97
2022-12-15T05:04:04.059Z,34.40
2022-12-15T05:06:50.125Z,37.13
2022-12-15T05:09:35.952Z,33.13
2022-12-15T05:12:21.797Z,36.30
2022-12-15T05:15:07.581Z,32.43
2022-12-15T05:17:54.698Z,36.80
2022-12-15T05:20:40.887Z,37.23
2022-12-15T05:23:26.802Z,35.40
2022-12-15T05:26:13.082Z,37.43
2022-12-15T05:28:58.737Z,35.13
2022-12-15T05:31:44.511Z,35.83
2022-12-15T05:34:14.361Z,35.50
2022-12-15T05:36:42.863Z,36.03
2022-12-15T05:39:11.205Z,35.00
2022-12-15T05:41:39.660Z,37.07
2022-12-15T05:44:08.252Z,36.33
2022-12-15T05:46:36.773Z,34.40
2022-12-15T05:49:06.345Z,34.33
2022-12-15T05:51:40.354Z,34.47
2022-12-15T05:54:08.801Z,34.30
2022-12-15T05:56:37.766Z,41.13
2022-12-15T05:59:06.645Z,39.50
2022-12-15T06:01:37.011Z,36.40
2022-12-15T06:04:12.811Z,36.40
2022-12-15T06:06:43.342Z,35.70
2022-12-15T06:09:12.087Z,39.37
2022-12-15T06:11:40.581Z,38.20
2022-12-15T06:14:09.815Z,33.53
2022-12-15T06:16:44.175Z,35.20
2022-12-15T06:19:20.516Z,33.13
2022-12-15T06:21:50.526Z,35.87
2022-12-15T06:24:19.187Z,41.37
2022-12-15T06:26:49.657Z,34.93
2022-12-15T06:29:18.664Z,31.37
2022-12-15T06:31:47.562Z,32.40
2022-12-15T06:34:17.606Z,31.13
2022-12-15T06:36:46.103Z,33.63
2022-12-15T06:39:17.211Z,30.67
2022-12-15T06:41:45.697Z,30.67
2022-12-15T06:44:15.488Z,32.87
2022-12-15T06:46:45.738Z,28.57
2022-12-15T06:49:15.035Z,28.00
2022-12-15T06:51:45.168Z,35.13
2022-12-15T06:54:15.511Z,30.33
2022-12-15T06:56:44.305Z,34.00
2022-12-15T06:59:13.885Z,30.93
2022-12-15T07:01:43.158Z,33.50
2022-12-15T07:04:12.422Z,34.90
2022-12-15T07:06:42.443Z,33.43
2022-12-15T07:09:18.148Z,35.93
2022-12-15T07:11:49.376Z,26.53
2022-12-15T07:14:17.837Z,30.27
2022-12-15T07:16:46.383Z,33.33
2022-12-15T07:19:14.812Z,34.80
2022-12-15T07:21:43.352Z,33.50
2022-12-15T07:24:13.119Z,36.13
2022-12-15T07:26:43.280Z,28.43
2022-12-15T07:29:14.936Z,34.37
2022-12-15T07:31:47.284Z,30.97
2022-12-15T07:34:15.771Z,35.10
2022-12-15T07:36:50.013Z,35.13
2022-12-15T07:39:20.562Z,32.77
2022-12-15T07:41:50.468Z,36.50
2022-12-15T07:44:19.009Z,32.63
2022-12-15T07:46:49.318Z,33.77
2022-12-15T07:49:18.001Z,33.70
2022-12-15T07:51:46.642Z,29.10
2022-12-15T07:54:15.823Z,28.53
2022-12-15T07:56:44.290Z,30.57
2022-12-15T07:59:20.712Z,29.93
2022-12-15T08:01:49.663Z,30.77
2022-12-15T08:04:18.557Z,28.90
2022-12-15T08:06:46.815Z,27.10
2022-12-15T08:09:15.440Z,28.43
2022-12-15T08:11:43.815Z,29.00
2022-12-15T08:14:17.364Z,26.47
2022-12-15T08:16:48.279Z,27.83
2022-12-15T08:19:17.897Z,65.23
2022-12-15T08:21:47.423Z,71.87
2022-12-15T08:24:16.490Z,51.40
2022-12-15T08:26:50.144Z,46.10
2022-12-15T08:32:09.273Z,53.07
2022-12-15T08:34:38.107Z,53.90
2022-12-15T08:37:06.500Z,50.47
2022-12-15T08:39:35.131Z,40.20
2022-12-15T08:42:03.609Z,30.97
2022-12-15T08:44:32.085Z,33.67
2022-12-15T08:47:00.453Z,31.47
2022-12-15T08:49:30.306Z,29.40
2022-12-15T08:51:58.691Z,35.63
2022-12-15T08:54:27.182Z,33.43
2022-12-15T08:56:55.659Z,28.27
2022-12-15T08:59:24.164Z,29.27
2022-12-15T09:01:52.685Z,29.80
2022-12-15T09:04:21.306Z,39.00
2022-12-15T09:06:51.262Z,42.80
2022-12-15T09:09:20.600Z,32.30
2022-12-15T09:11:49.131Z,32.13
2022-12-15T09:14:18.972Z,31.30
2022-12-15T09:16:50.577Z,32.93
2022-12-15T09:19:21.730Z,29.23
2022-12-15T09:21:51.358Z,30.07
2022-12-15T09:24:28.898Z,31.30
2022-12-15T09:27:03.177Z,29.13
2022-12-15T09:29:31.660Z,27.90
2022-12-15T09:32:00.379Z,34.23
2022-12-15T09:34:29.016Z,32.13
2022-12-15T09:36:58.782Z,27.97
2022-12-15T09:39:27.204Z,33.50
2022-12-15T09:41:58.623Z,28.07
2022-12-15T09:44:28.691Z,29.90
2022-12-15T09:47:06.051Z,28.07
2022-12-15T09:49:54.950Z,30.33
2022-12-15T09:52:27.494Z,32.53
2022-12-15T09:54:56.057Z,30.50
2022-12-15T09:57:34.914Z,30.23
2022-12-15T10:00:10.080Z,29.73
2022-12-15T10:03:11.337Z,34.87
2022-12-15T10:08:40.904Z,30.53
2022-12-15T10:11:21.965Z,33.23
2022-12-15T10:13:56.073Z,43.30
2022-12-15T10:16:28.603Z,41.73
2022-12-15T10:19:03.360Z,34.57
2022-12-15T10:21:32.748Z,38.57
2022-12-15T10:24:13.036Z,45.93
2022-12-15T10:26:42.973Z,33.90
2022-12-15T10:29:25.861Z,31.63
2022-12-15T10:31:56.704Z,30.90
2022-12-15T10:34:27.849Z,28.70
2022-12-15T10:36:57.715Z,29.77
2022-12-15T10:39:40.202Z,30.43
2022-12-15T10:42:14.938Z,32.17
2022-12-15T10:44:45.603Z,41.87
2022-12-15T10:47:22.686Z,38.93
2022-12-15T10:49:51.673Z,33.30
2022-12-15T10:52:32.400Z,32.90
2022-12-15T10:55:02.201Z,36.83
2022-12-15T10:57:33.658Z,27.70
2022-12-15T11:00:27.970Z,30.23
2022-12-15T11:02:56.745Z,29.60
2022-12-15T11:05:25.416Z,25.50
2022-12-15T11:07:55.568Z,27.23
2022-12-15T11:10:27.395Z,30.17
2022-12-15T11:12:58.712Z,23.40
2022-12-15T11:15:45.889Z,22.27
2022-12-15T11:18:34.200Z,21.97
2022-12-15T11:21:04.277Z,29.33
2022-12-15T11:23:48.958Z,28.87
2022-12-15T11:26:30.501Z,29.77
2022-12-15T11:29:02.396Z,27.37
2022-12-15T11:31:35.281Z,28.53
2022-12-15T11:34:03.960Z,25.40
2022-12-15T11:36:48.459Z,24.30
2022-12-15T11:39:23.721Z,29.10
2022-12-15T11:41:56.534Z,22.87
2022-12-15T11:44:29.086Z,23.77
2022-12-15T11:47:07.236Z,27.97
2022-12-15T11:49:54.276Z,28.33
2022-12-15T11:52:52.994Z,26.50
2022-12-15T11:55:32.146Z,25.53
2022-12-15T11:58:34.299Z,24.90
2022-12-15T12:01:06.872Z,24.63
2022-12-15T12:03:39.683Z,25.97
2022-12-15T12:06:18.723Z,37.43
2022-12-15T12:08:56.526Z,29.93
2022-12-15T12:11:30.390Z,23.97
2022-12-15T12:14:18.742Z,25.70
2022-12-15T12:16:51.166Z,27.07
2022-12-15T12:19:21.786Z,27.57
2022-12-15T12:21:51.923Z,30.83
2022-12-15T12:24:22.554Z,25.67
2022-12-15T12:26:55.150Z,30.90
2022-12-15T12:29:29.401Z,31.17
2022-12-15T12:32:05.239Z,27.27
2022-12-15T12:34:43.654Z,25.47
2022-12-15T12:37:20.788Z,29.30
2022-12-15T12:39:50.037Z,28.27
2022-12-15T12:42:23.268Z,27.37
2022-12-15T12:44:53.098Z,30.43
2022-12-15T12:47:25.197Z,29.53
2022-12-15T12:49:58.251Z,36.93
2022-12-15T12:52:29.543Z,27.43
2022-12-15T12:55:01.192Z,29.83
2022-12-15T12:57:38.263Z,31.20
2022-12-15T13:00:23.168Z,28.43
2022-12-15T13:03:20.190Z,30.80
2022-12-15T13:05:51.714Z,29.97
2022-12-15T13:08:51.772Z,30.73
2022-12-15T13:14:51.717Z,28.40
2022-12-15T13:17:32.012Z,30.17
2022-12-15T13:20:26.139Z,28.07
2022-12-15T13:22:56.382Z,27.87
2022-12-15T13:25:36.728Z,31.03
2022-12-15T13:28:20.403Z,32.00
2022-12-15T13:31:28.905Z,36.03
2022-12-15T13:34:07.730Z,29.33
2022-12-15T13:36:56.482Z,32.83
2022-12-15T13:39:57.332Z,34.90
2022-12-15T13:42:37.079Z,37.05
2022-12-15T13:45:45.359Z,28.87
2022-12-15T13:48:31.911Z,29.10
2022-12-15T13:51:21.251Z,27.57
2022-12-15T13:53:54.085Z,28.87
2022-12-15T13:56:40.377Z,30.73
2022-12-15T13:59:16.503Z,28.13
2022-12-15T14:01:51.096Z,31.70
2022-12-15T14:04:20.721Z,29.23
2022-12-15T14:06:53.679Z,29.33
2022-12-15T14:09:26.850Z,27.47
2022-12-15T14:11:55.809Z,29.00
2022-12-15T14:14:27.799Z,30.00
2022-12-15T14:17:01.744Z,31.00
2022-12-15T14:19:39.961Z,31.83
2022-12-15T14:22:27.677Z,33.67
2022-12-15T14:25:02.392Z,47.43
2022-12-15T14:27:32.895Z,37.93
2022-12-15T14:30:13.474Z,35.17
2022-12-15T14:32:42.561Z,30.00
2022-12-15T14:35:15.683Z,37.07
2022-12-15T14:37:45.889Z,28.40
2022-12-15T14:40:15.953Z,28.50
2022-12-15T14:42:45.171Z,36.40
2022-12-15T14:45:20.811Z,33.77
2022-12-15T14:48:13.448Z,34.47
2022-12-15T14:50:47.606Z,31.33
2022-12-15T14:53:19.059Z,36.00
2022-12-15T14:55:47.976Z,31.17
2022-12-15T14:58:31.788Z,27.37
2022-12-15T15:01:01.459Z,26.93
2022-12-15T15:03:07.288Z,32.17
2022-12-15T15:03:38.468Z,29.57
2022-12-15T15:06:17.108Z,28.03
2022-12-15T15:08:48.428Z,27.83
2022-12-15T15:11:25.407Z,29.53
2022-12-15T15:13:56.797Z,29.13
2022-12-15T15:16:25.649Z,29.77
2022-12-15T15:18:56.780Z,27.67
2022-12-15T15:21:27.301Z,31.67
2022-12-15T15:24:01.876Z,27.07
2022-12-15T15:26:31.016Z,26.77
2022-12-15T15:28:59.602Z,31.97
2022-12-15T15:31:35.265Z,30.07
2022-12-15T15:34:07.041Z,27.10
2022-12-15T15:36:37.265Z,28.37
2022-12-15T15:39:16.592Z,28.50
2022-12-15T15:41:44.954Z,30.50
2022-12-15T15:44:14.745Z,28.90
2022-12-15T15:46:47.722Z,28.83
2022-12-15T15:49:19.763Z,32.37
2022-12-15T15:51:48.312Z,34.80
2022-12-15T15:54:20.253Z,32.03
2022-12-15T15:56:48.670Z,28.37
2022-12-15T15:59:18.585Z,31.57
2022-12-15T16:01:49.283Z,30.27
2022-12-15T16:04:17.617Z,27.93
2022-12-15T16:06:47.758Z,27.07
2022-12-15T16:09:18.022Z,29.57
2022-12-15T16:11:46.974Z,26.13
2022-12-15T16:14:17.625Z,30.07
2022-12-15T16:16:46.460Z,24.97
2022-12-15T16:19:14.957Z,27.80
2022-12-15T16:21:44.480Z,26.10
2022-12-15T16:24:17.453Z,26.63
2022-12-15T16:26:49.479Z,28.80
2022-12-15T16:29:20.088Z,25.83
2022-12-15T16:31:48.943Z,30.27
2022-12-15T16:34:19.163Z,29.43
2022-12-15T16:36:47.541Z,29.13
2022-12-15T16:39:28.425Z,29.17
2022-12-15T16:41:57.458Z,27.80
2022-12-15T16:44:26.395Z,28.97
2022-12-15T16:46:54.851Z,29.87
2022-12-15T16:49:23.307Z,28.53
2022-12-15T16:51:53.638Z,36.20
2022-12-15T16:54:23.922Z,29.97
2022-12-15T16:56:54.203Z,29.53
2022-12-15T16:59:33.137Z,33.10
2022-12-15T17:02:01.682Z,27.40
2022-12-15T17:04:30.106Z,30.30
2022-12-15T17:06:58.393Z,29.47
2022-12-15T17:09:27.183Z,28.70
2022-12-15T17:11:56.882Z,31.13
2022-12-15T17:14:25.296Z,29.43
2022-12-15T17:16:55.897Z,35.07
2022-12-15T17:19:24.137Z,36.70
2022-12-15T17:21:54.051Z,37.83
2022-12-15T17:24:23.124Z,31.47
2022-12-15T17:26:51.676Z,31.80
2022-12-15T17:29:23.025Z,32.03
2022-12-15T17:31:51.455Z,35.53
2022-12-15T17:34:27.735Z,41.33
2022-12-15T17:36:56.357Z,37.30
2022-12-15T17:39:24.803Z,47.53
2022-12-15T17:42:02.658Z,45.80
2022-12-15T17:44:38.225Z,40.00
2022-12-15T17:47:09.222Z,37.70
2022-12-15T17:49:39.190Z,30.43
2022-12-15T17:52:16.586Z,40.70
2022-12-15T17:54:44.983Z,65.67
2022-12-15T17:57:13.577Z,65.27
2022-12-15T17:59:43.256Z,38.97
2022-12-15T18:02:13.505Z,38.63
2022-12-15T18:04:42.219Z,36.67
2022-12-15T18:07:17.223Z,32.00
2022-12-15T18:09:45.632Z,48.27
2022-12-15T18:12:19.512Z,40.80
2022-12-15T18:14:49.427Z,35.80
2022-12-15T18:17:17.729Z,36.33
2022-12-15T18:19:46.424Z,49.23
2022-12-15T18:22:16.631Z,43.37
2022-12-15T18:24:45.044Z,39.23
2022-12-15T18:27:23.435Z,46.23
2022-12-15T18:29:53.926Z,44.97
2022-12-15T18:32:23.791Z,33.87
2022-12-15T18:34:52.396Z,38.03
2022-12-15T18:37:22.978Z,39.13
2022-12-15T18:39:51.771Z,35.07
2022-12-15T18:42:23.019Z,35.40
2022-12-15T18:44:54.077Z,34.93
2022-12-15T18:47:25.138Z,35.20
2022-12-15T18:49:53.470Z,36.27
2022-12-15T18:52:23.701Z,35.97
2022-12-15T18:54:53.091Z,33.77
2022-12-15T18:57:28.817Z,35.70
2022-12-15T19:00:00.272Z,37.50
2022-12-15T19:02:29.086Z,38.80
2022-12-15T19:04:57.431Z,39.17
2022-12-15T19:07:25.995Z,42.50
2022-12-15T19:09:54.406Z,39.27
2022-12-15T19:12:22.778Z,36.27
2022-12-15T19:14:52.317Z,33.60
2022-12-15T19:17:40.934Z,39.87
2022-12-15T19:20:34.327Z,34.10
2022-12-15T19:23:02.605Z,33.07
2022-12-15T19:25:31.171Z,36.20
2022-12-15T19:28:00.247Z,31.03
2022-12-15T19:30:30.505Z,37.27
2022-12-15T19:33:00.534Z,30.27
2022-12-15T19:35:29.599Z,32.83
2022-12-15T19:37:59.402Z,33.10
2022-12-15T19:40:30.248Z,32.73
2022-12-15T19:42:59.328Z,29.87
2022-12-15T19:45:29.019Z,29.20
2022-12-15T19:47:57.532Z,32.53
2022-12-15T19:50:29.804Z,34.20
2022-12-15T19:53:00.824Z,31.73
2022-12-15T19:55:33.604Z,30.23
2022-12-15T19:58:02.319Z,32.27
2022-12-15T20:00:30.569Z,34.87
2022-12-15T20:02:59.003Z,28.83
2022-12-15T20:05:28.696Z,31.63
2022-12-15T20:07:57.075Z,31.10
2022-12-15T20:10:32.351Z,34.13
2022-12-15T20:13:01.310Z,29.07
2022-12-15T20:15:29.711Z,36.87
2022-12-15T20:17:58.202Z,34.63
2022-12-15T20:20:29.011Z,43.50
2022-12-15T20:23:00.113Z,33.10
2022-12-15T20:25:30.855Z,31.03
2022-12-15T20:28:00.339Z,30.13
2022-12-15T20:30:32.492Z,32.30
2022-12-15T20:33:01.116Z,32.10
2022-12-15T20:35:33.358Z,30.93
2022-12-15T20:38:02.585Z,33.03
2022-12-15T20:40:31.272Z,32.17
2022-12-15T20:42:59.535Z,34.03
2022-12-15T20:45:28.169Z,31.57
2022-12-15T20:47:57.551Z,31.07
2022-12-15T20:50:28.613Z,35.20
2022-12-15T20:52:58.508Z,31.80
2022-12-15T20:55:26.792Z,32.97
2022-12-15T20:57:55.176Z,31.60
2022-12-15T21:00:24.177Z,33.03
2022-12-15T21:02:55.164Z,33.10
2022-12-15T21:05:26.021Z,34.23
2022-12-15T21:07:54.550Z,32.93
2022-12-15T21:10:24.199Z,32.80
2022-12-15T21:12:52.508Z,30.73
2022-12-15T21:15:22.600Z,33.30
2022-12-15T21:18:11.096Z,36.53
2022-12-15T21:20:41.524Z,31.93
2022-12-15T21:23:20.583Z,33.57
2022-12-15T21:25:50.540Z,35.27
2022-12-15T21:28:19.195Z,37.57
2022-12-15T21:30:48.048Z,37.90
2022-12-15T21:33:16.735Z,33.10
2022-12-15T21:35:47.177Z,35.30
2022-12-15T21:38:34.437Z,34.30
2022-12-15T21:41:06.630Z,30.43
2022-12-15T21:43:36.886Z,31.50
2022-12-15T21:46:14.385Z,30.40
2022-12-15T21:49:00.250Z,32.10
2022-12-15T21:51:31.064Z,33.80
2022-12-15T21:53:59.578Z,35.87
2022-12-15T21:56:29.329Z,34.93
2022-12-15T21:58:57.799Z,35.00
2022-12-15T22:01:29.281Z,30.83
2022-12-15T22:03:59.047Z,31.30
2022-12-15T22:06:28.599Z,34.90
2022-12-15T22:08:59.509Z,30.20
2022-12-15T22:11:31.020Z,34.13
2022-12-15T22:14:01.804Z,34.90
2022-12-15T22:16:30.308Z,30.10
2022-12-15T22:18:59.616Z,30.13
2022-12-15T22:21:28.413Z,29.17
2022-12-15T22:23:56.645Z,30.97
2022-12-15T22:26:31.742Z,31.10
2022-12-15T22:29:03.043Z,33.47
2022-12-15T22:31:31.325Z,31.73
2022-12-15T22:33:59.800Z,36.63
2022-12-15T22:36:27.999Z,35.87
2022-12-15T22:38:56.587Z,32.20
2022-12-15T22:41:25.606Z,37.73
2022-12-15T22:43:55.272Z,39.63
2022-12-15T22:46:29.276Z,40.93
2022-12-15T22:48:58.174Z,41.70
2022-12-15T22:51:26.430Z,38.83
2022-12-15T22:53:54.655Z,38.60
2022-12-15T22:56:25.157Z,36.83
2022-12-15T22:58:55.476Z,41.03
2022-12-15T23:01:25.696Z,41.77
2022-12-15T23:03:55.679Z,44.07
2022-12-15T23:06:24.196Z,44.57
2022-12-15T23:08:55.940Z,45.40
2022-12-15T23:11:39.003Z,41.80
2022-12-15T23:14:08.879Z,40.67
2022-12-15T23:16:37.945Z,42.90
2022-12-15T23:19:07.900Z,44.63
2022-12-15T23:21:37.241Z,47.47
2022-12-15T23:24:05.805Z,45.03
2022-12-15T23:26:34.109Z,46.13
2022-12-15T23:29:02.340Z,43.87
2022-12-15T23:31:30.900Z,48.73
2022-12-15T23:34:00.633Z,46.47
2022-12-15T23:36:29.039Z,50.87
2022-12-15T23:38:59.033Z,48.37
2022-12-15T23:41:29.237Z,52.70
2022-12-15T23:43:57.441Z,57.00
2022-12-15T23:46:25.851Z,64.63
2022-12-15T23:48:54.189Z,57.17
2022-12-15T23:51:24.722Z,60.80
2022-12-15T23:53:53.024Z,52.90
2022-12-15T23:56:25.258Z,52.57
2022-12-15T23:58:56.717Z,56.57
